Terminal Aerodrome Forecast
Issued by NWS Boston, MA

Home | Current Version | Previous Version | Text Only | Print | Product List | Glossary On
Versions: 1 2 3 4 5 6 7 8 9 10 11 12 13 14 15 16 17 18 19 20 21 22 23 24
000
FTUS41 KBOX 260210 AAA
TAFORH
TAF AMD
KORH 260210Z 2602/2624 36003KT P6SM SKC
     FM261200 06007KT P6SM SCT008
     FM261300 06007KT P6SM BKN008
     FM261500 08007KT P6SM BKN025
     FM261900 10006KT P6SM VCSH OVC020=

USA.gov is the U.S. government's official web portal to all federal, state and local government web resources and services.